Latest Weather Observations for Wagga Wagga

IDN60801

Issued at 4:22 am EST Friday 20 May 2022 (issued every 10 minutes, with the page automatically refreshed every 10 minutes)

About weather observations | Map of weather stations | Latest weather observations for NSW | Other Formats
Station Details ID: 072150 Name: WAGGA WAGGA AMO Lat: -35.16 Lon: 147.46 Height: 212.0 m
Data from the previous 72 hours. | See also: Recent months at Wagga Wagga
Date/Time
EST
Temp
°C
App
Temp
°C
Dew
Point
°C
Rel
Hum
%
Delta-T
°C
Wind Press
QNH
hPa
Press
MSL
hPa
Rain since
9am
mm
Dir  Spd
km/h
Gust
km/h
Spd
kts
Gust
kts
20/04:00am 2.9 0.0 2.8 99 0.0 ENE 7 9 4 5 1030.2 1030.3 0.0
20/03:30am 3.9 1.2 3.8 99 0.0 NNE 7 7 4 4 1030.0 1030.1 0.0
20/03:00am 5.3 3.1 5.2 99 0.0 SE 6 7 3 4 1030.0 1030.1 0.0
20/02:30am 4.7 1.8 4.6 99 0.0 SE 9 13 5 7 1029.9 1030.0 0.0
20/02:00am 5.1 1.5 5.0 99 0.0 ESE 13 13 7 7 1030.1 1030.2 0.0
20/01:30am 5.0 1.7 4.4 96 0.3 ESE 11 13 6 7 1030.0 1030.1 0.0
20/01:00am 5.7 2.2 5.3 97 0.2 E 13 15 7 8 1030.0 1030.1 0.0
20/12:30am 5.7 2.9 5.3 97 0.2 ENE 9 13 5 7 1029.8 1029.9 0.0
20/12:00am 5.5 1.9 5.2 98 0.1 ESE 13 13 7 7 1029.8 1029.9 0.0
 
Date/Time
EST
Temp
°C
App
Temp
°C
Dew
Point
°C
Rel
Hum
%
Delta-T
°C
Wind Press
QNH
hPa
Press
MSL
hPa
Rain since
9am
mm
Dir  Spd
km/h
Gust
km/h
Spd
kts
Gust
kts
19/11:30pm 5.9 2.9 5.8 99 0.0 E 11 13 6 7 1029.9 1030.0 0.0
19/11:00pm 5.5 3.3 5.4 99 0.0 NE 6 7 3 4 1029.7 1029.8 0.0
19/10:30pm 4.8 2.3 4.7 99 0.0 E 7 9 4 5 1029.8 1029.9 0.0
19/10:00pm 5.2 3.0 5.1 99 0.0 ENE 6 7 3 4 1029.8 1029.9 0.0
19/09:30pm 4.8 3.6 4.5 98 0.1 CALM 0 0 0 0 1029.7 1029.8 0.0
19/09:10pm 5.6 4.5 5.0 96 0.3 CALM 0 0 0 0 1029.5 1029.6 0.0
19/09:00pm 6.7 5.8 6.1 96 0.3 CALM 0 0 0 0 1029.6 1029.7 0.0
19/08:30pm 6.4 5.4 5.7 95 0.3 CALM 0 0 0 0 1029.5 1029.6 0.0
19/08:00pm 6.3 5.3 5.4 94 0.4 CALM 0 0 0 0 1029.4 1029.5 0.0
19/07:30pm 7.0 6.0 5.5 90 0.7 CALM 0 0 0 0 1029.3 1029.4 0.0
19/07:00pm 7.3 5.2 5.6 89 0.8 SW 6 7 3 4 1029.0 1029.1 0.0
19/06:30pm 7.7 5.5 5.5 86 1.0 W 6 9 3 5 1028.6 1028.8 0.0
19/06:25pm 7.5 5.3 5.1 85 1.1 W 6 9 3 5 1028.5 1028.7 0.0
19/06:14pm 8.1 5.5 5.9 86 1.0 SW 9 11 5 6 1028.3 1028.5 0.0
19/06:00pm 7.2 4.4 5.0 86 1.0 SW 9 11 5 6 1028.1 1028.3 0.0
19/05:46pm 6.8 3.0 4.1 83 1.2 SSW 13 15 7 8 1027.9 1028.1 0.0
19/05:30pm 8.6 5.3 4.6 76 1.8 SW 11 13 6 7 1027.8 1028.0 0.0
19/05:20pm 9.1 5.8 4.7 74 2.0 SW 11 13 6 7 1027.8 1028.0 0.0
19/05:03pm 9.5 5.8 4.7 72 2.2 SW 13 15 7 8 1027.6 1027.7 0.0
19/05:00pm 9.7 6.0 4.7 71 2.2 SW 13 15 7 8 1027.5 1027.6 0.0
19/04:30pm 12.0 8.4 5.2 63 3.2 SW 13 17 7 9 1026.9 1027.0 0.0
19/04:27pm 12.4 8.4 5.1 61 3.4 SW 15 20 8 11 1026.9 1027.0 0.0
19/04:00pm 14.3 10.8 5.4 55 4.2 SW 13 19 7 10 1026.6 1026.7 0.0
19/03:49pm 14.6 11.2 5.7 55 4.3 SW 13 17 7 9 1026.6 1026.7 0.0
19/03:30pm 14.7 11.4 4.7 51 4.7 SSW 11 17 6 9 1026.4 1026.5 0.0
19/03:00pm 14.8 11.3 5.6 54 4.4 SW 13 19 7 10 1026.2 1026.3 0.0
19/02:30pm 14.8 11.2 4.8 51 4.7 W 13 17 7 9 1026.1 1026.2 0.0
19/02:00pm 15.2 12.6 6.0 54 4.4 WSW 9 15 5 8 1026.1 1026.2 0.0
19/01:30pm 14.5 11.6 4.5 51 4.7 SW 9 19 5 10 1026.2 1026.3 0.0
19/01:14pm 13.9 10.6 4.5 53 4.4 W 11 17 6 9 1026.4 1026.5 0.0
19/01:00pm 14.3 12.2 5.9 57 4.0 W 6 11 3 6 1026.5 1026.6 0.0
19/12:30pm 13.5 11.0 6.4 62 3.4 W 9 15 5 8 1026.9 1027.0 0.0
19/12:00pm 12.4 10.4 6.9 69 2.7 NW 7 11 4 6 1027.3 1027.4 0.0
19/11:30am 12.7 11.2 9.0 78 1.9 NW 7 9 4 5 1027.6 1027.7 0.0
19/11:00am 10.5 8.7 7.0 79 1.7 N 6 9 3 5 1028.1 1028.3 0.0
19/10:30am 9.8 7.8 7.2 84 1.2 NNE 7 9 4 5 1028.1 1028.3 0.0
19/10:00am 8.4 7.1 7.5 94 0.4 NNW 4 9 2 5 1028.3 1028.5 0.0
19/09:30am 6.8 4.6 6.4 97 0.2 NNW 7 9 4 5 1028.1 1028.3 0.0
19/09:00am 6.4 4.4 6.3 99 0.0 E 6 7 3 4 1028.0 1028.2 0.0
19/08:30am 4.8 3.3 4.8 100 0.0 SSE 2 9 1 5 1027.8 1028.0 0.0
19/08:03am 1.7 0.0 1.7 100 0.0 CALM 0 0 0 0 1027.3 1027.4 0.0
19/08:00am 1.6 -0.1 1.6 100 0.0 CALM 0 0 0 0 1027.3 1027.4 0.0
19/07:43am 1.2 -0.6 1.2 100 0.0 CALM 0 0 0 0 1027.3 1027.4 0.0
19/07:30am 1.5 -1.4 1.5 100 0.0 ESE 6 7 3 4 1027.0 1027.1 0.0
19/07:00am 1.3 -1.6 1.3 100 0.0 NE 6 7 3 4 1026.7 1026.8 0.0
19/06:34am 1.6 -1.5 1.6 100 0.0 ENE 7 7 4 4 1026.4 1026.5 0.0
19/06:31am 1.5 -1.6 1.5 100 0.0 ENE 7 9 4 5 1026.4 1026.5 0.0
19/06:30am 1.7 -1.3 1.7 100 0.0 ENE 7 9 4 5 1026.4 1026.5 0.0
19/06:00am 2.3 0.7 2.3 100 0.0 CALM 0 0 0 0 1026.1 1026.2 0.0
19/05:52am 2.2 0.6 2.2 100 0.0 CALM 0 0 0 0 1026.0 1026.1 0.0
19/05:48am 2.2 0.6 2.2 100 0.0 CALM 0 0 0 0 1026.0 1026.1 0.0
19/05:30am 2.3 0.7 2.3 100 0.0 CALM 0 0 0 0 1025.7 1025.8 0.0
19/05:17am 2.0 0.3 2.0 100 0.0 CALM 0 0 0 0 1025.6 1025.7 0.0
19/05:03am 1.3 -0.5 1.3 100 0.0 CALM 0 0 0 0 1025.6 1025.7 0.0
19/05:00am 1.4 -0.4 1.4 100 0.0 CALM 0 0 0 0 1025.6 1025.7 0.0
19/04:42am 1.9 0.2 1.9 100 0.0 CALM 0 0 0 0 1025.5 1025.6 0.0
19/04:30am 2.3 0.7 2.3 100 0.0 CALM 0 0 0 0 1025.3 1025.4 0.0
19/04:00am 1.9 -1.1 1.9 100 0.0 WSW 7 9 4 5 1025.2 1025.3 0.0
19/03:30am 3.3 1.9 3.3 100 0.0 CALM 0 0 0 0 1025.2 1025.3 0.0
19/03:00am 1.9 0.2 1.8 99 0.0 CALM 0 4 0 2 1025.4 1025.5 0.0
19/02:30am 3.1 1.6 3.0 99 0.0 CALM 0 0 0 0 1025.4 1025.5 0.0
19/02:00am 3.7 2.3 3.7 100 0.0 CALM 0 0 0 0 1025.2 1025.3 0.0
19/01:30am 3.6 2.2 3.6 100 0.0 CALM 0 0 0 0 1025.0 1025.1 0.0
19/01:00am 4.2 2.9 4.1 99 0.0 CALM 0 0 0 0 1024.9 1025.0 0.0
19/12:30am 4.4 3.1 4.3 99 0.0 CALM 0 0 0 0 1024.9 1025.0 0.0
19/12:00am 4.9 3.7 4.8 99 0.0 CALM 0 0 0 0 1024.8 1024.9 0.0
 
Date/Time
EST
Temp
°C
App
Temp
°C
Dew
Point
°C
Rel
Hum
%
Delta-T
°C
Wind Press
QNH
hPa
Press
MSL
hPa
Rain since
9am
mm
Dir  Spd
km/h
Gust
km/h
Spd
kts
Gust
kts
18/11:30pm 5.0 3.9 4.9 99 0.0 CALM 0 0 0 0 1024.8 1024.9 0.0
18/11:00pm 5.2 4.0 4.8 97 0.2 CALM 0 0 0 0 1024.9 1025.0 0.0
18/10:30pm 5.3 4.1 4.6 95 0.3 CALM 0 0 0 0 1024.7 1024.8 0.0
18/10:00pm 7.0 4.4 6.1 94 0.4 NW 9 13 5 7 1024.6 1024.7 0.0
18/09:30pm 7.2 5.1 6.5 95 0.3 NNW 7 9 4 5 1024.2 1024.3 0.0
18/09:00pm 6.7 5.6 5.0 89 0.7 CALM 0 0 0 0 1024.1 1024.2 0.0
18/08:30pm 8.2 6.2 6.3 88 0.9 WNW 6 9 3 5 1024.1 1024.2 0.0
18/08:00pm 7.6 4.8 5.1 84 1.1 W 9 11 5 6 1023.9 1024.1 0.0
18/07:30pm 8.5 7.6 6.0 84 1.2 CALM 0 6 0 3 1024.1 1024.2 0.0
18/07:00pm 8.8 6.5 5.9 82 1.3 SSE 7 9 4 5 1023.6 1023.7 0.0
18/06:30pm 7.8 4.9 4.7 81 1.4 SW 9 11 5 6 1023.3 1023.4 0.0
18/06:00pm 8.5 4.8 4.7 77 1.7 SW 13 17 7 9 1022.8 1022.9 0.0
18/05:30pm 11.0 7.7 4.7 65 2.9 W 11 13 6 7 1022.4 1022.5 0.0
18/05:00pm 12.0 8.3 4.7 61 3.4 W 13 15 7 8 1022.0 1022.1 0.0
18/04:30pm 13.5 8.9 5.4 58 3.8 WSW 19 24 10 13 1021.7 1021.8 0.0
18/04:00pm 14.1 8.8 4.9 54 4.3 W 22 30 12 16 1021.5 1021.6 0.0
18/03:30pm 14.7 8.5 4.4 50 4.8 W 26 35 14 19 1021.3 1021.4 0.0
18/03:00pm 14.9 8.7 6.2 56 4.2 WSW 28 35 15 19 1021.1 1021.2 0.0
18/02:30pm 13.5 6.4 3.8 52 4.4 WSW 30 44 16 24 1021.0 1021.1 0.0
18/02:00pm 14.3 8.5 6.4 59 3.8 WSW 26 33 14 18 1021.0 1021.1 0.0
18/01:30pm 14.9 9.6 9.7 71 2.7 W 28 39 15 21 1021.0 1021.1 0.0
18/01:00pm 13.4 8.7 9.3 76 2.1 WSW 24 32 13 17 1021.1 1021.2 0.0
18/12:30pm 13.7 8.0 8.5 71 2.6 WSW 28 33 15 18 1021.3 1021.4 0.0
18/12:00pm 15.2 9.8 10.8 75 2.3 W 30 39 16 21 1021.7 1021.8 0.0
18/11:30am 13.7 9.1 9.7 77 2.1 W 24 33 13 18 1022.0 1022.1 0.0
18/11:00am 13.2 8.1 10.7 85 1.3 W 28 35 15 19 1022.4 1022.5 0.0
18/10:30am 12.9 7.0 9.0 77 2.0 WSW 30 43 16 23 1022.4 1022.5 0.0
18/10:00am 12.8 9.0 9.1 78 1.9 W 19 26 10 14 1022.5 1022.6 0.0
18/09:30am 13.1 9.4 9.4 78 1.9 W 19 22 10 12 1022.5 1022.6 0.0
18/09:00am 12.5 9.8 9.1 80 1.7 WNW 13 15 7 8 1022.2 1022.3 0.0
18/08:30am 11.6 9.0 9.2 85 1.2 WNW 13 17 7 9 1021.8 1021.9 0.0
18/08:00am 11.4 8.7 10.3 93 0.6 WNW 15 17 8 9 1021.8 1021.9 0.0
18/07:30am 10.5 8.1 9.9 96 0.3 W 13 17 7 9 1021.6 1021.7 0.0
18/07:00am 10.5 8.1 9.9 96 0.3 W 13 17 7 9 1021.4 1021.5 0.0
18/06:30am 10.4 8.3 9.6 95 0.4 W 11 15 6 8 1020.9 1021.0 0.0
18/06:00am 9.9 9.9 9.8 99 0.1 CALM 0 0 0 0 1020.9 1021.0 0.0
18/05:30am 10.2 10.3 10.1 99 0.1 CALM 0 0 0 0 1020.6 1020.7 0.0
18/05:00am 10.4 10.4 9.8 96 0.3 CALM 0 0 0 0 1020.5 1020.6 0.0
18/04:30am 10.7 10.3 9.9 95 0.4 ENE 2 6 1 3 1020.3 1020.4 0.0
18/04:00am 10.7 10.6 9.6 93 0.6 CALM 0 0 0 0 1020.1 1020.2 0.0
18/03:30am 10.7 10.6 9.3 91 0.7 CALM 0 0 0 0 1020.3 1020.4 0.0
18/03:00am 10.7 10.7 9.9 95 0.4 CALM 0 0 0 0 1020.4 1020.5 0.0
18/02:30am 10.8 10.5 10.2 96 0.3 ENE 2 6 1 3 1020.6 1020.7 0.0
18/02:00am 10.7 10.8 10.2 97 0.3 CALM 0 0 0 0 1020.7 1020.8 0.0
18/01:30am 10.8 10.9 10.3 97 0.3 CALM 0 0 0 0 1021.0 1021.1 0.0
18/01:00am 10.7 10.9 10.4 98 0.2 CALM 0 0 0 0 1021.1 1021.2 0.0
18/12:30am 10.5 10.3 10.3 99 0.1 SSE 2 7 1 4 1021.3 1021.4 0.0
18/12:00am 10.8 10.9 10.2 96 0.3 CALM 0 0 0 0 1021.1 1021.2 0.0
 
Date/Time
EST
Temp
°C
App
Temp
°C
Dew
Point
°C
Rel
Hum
%
Delta-T
°C
Wind Press
QNH
hPa
Press
MSL
hPa
Rain since
9am
mm
Dir  Spd
km/h
Gust
km/h
Spd
kts
Gust
kts
17/11:30pm 11.0 11.2 10.5 97 0.3 CALM 0 9 0 5 1021.3 1021.4 0.0
17/11:00pm 11.0 11.2 10.4 96 0.3 CALM 0 0 0 0 1021.6 1021.7 0.0
17/10:30pm 11.0 11.0 9.9 93 0.6 CALM 0 0 0 0 1021.8 1021.9 0.0
17/10:00pm 10.9 11.0 10.0 94 0.5 CALM 0 0 0 0 1021.8 1021.9 0.0
17/09:30pm 10.8 10.9 10.3 97 0.3 CALM 0 0 0 0 1021.7 1021.8 0.0
17/09:00pm 11.4 11.5 10.0 91 0.7 CALM 0 0 0 0 1021.7 1021.8 0.0
17/08:30pm 11.4 11.4 9.8 90 0.8 CALM 0 0 0 0 1021.5 1021.6 0.0
17/08:00pm 11.7 11.6 9.4 86 1.2 CALM 0 0 0 0 1021.5 1021.6 0.0
17/07:30pm 11.8 11.5 8.6 81 1.6 CALM 0 0 0 0 1021.3 1021.4 0.0
17/07:00pm 12.1 11.7 8.4 78 1.8 CALM 0 0 0 0 1021.2 1021.3 0.0
17/06:30pm 11.8 11.3 7.9 77 1.9 CALM 0 0 0 0 1021.0 1021.1 0.0
17/06:00pm 12.2 11.1 8.5 78 1.8 SW 4 6 2 3 1020.8 1020.9 0.0
17/05:30pm 12.3 10.4 7.4 72 2.4 WSW 7 7 4 4 1020.5 1020.6 0.0
17/05:00pm 12.5 10.6 7.6 72 2.4 W 7 9 4 5 1020.3 1020.4 0.0
17/04:30pm 12.7 10.0 7.2 69 2.7 W 11 13 6 7 1020.3 1020.4 0.0
17/04:00pm 14.0 11.7 7.5 65 3.2 WSW 9 13 5 7 1020.2 1020.3 0.0
17/03:30pm 13.7 10.5 7.0 64 3.3 W 13 17 7 9 1020.1 1020.2 0.0
17/03:00pm 13.8 9.5 6.9 63 3.4 W 19 26 10 14 1020.2 1020.3 0.0
17/02:30pm 14.9 10.8 6.0 55 4.3 WNW 17 26 9 14 1020.1 1020.2 0.0
17/02:00pm 15.3 11.6 6.3 55 4.4 WSW 15 22 8 12 1020.3 1020.4 0.0
17/01:30pm 15.0 10.9 6.3 56 4.2 W 17 22 9 12 1020.5 1020.6 0.0
17/01:00pm 15.1 12.2 8.3 64 3.5 WSW 13 19 7 10 1020.7 1020.8 0.0
17/12:30pm 14.8 11.3 7.4 61 3.7 WNW 15 24 8 13 1020.9 1021.0 0.0
17/12:00pm 13.0 9.3 7.9 71 2.5 W 17 22 9 12 1021.3 1021.4 0.0
17/11:30am 12.9 10.4 8.0 72 2.4 WSW 11 17 6 9 1021.6 1021.7 0.0
17/11:00am 13.1 10.2 9.7 80 1.8 WSW 15 19 8 10 1021.9 1022.0 0.0
17/10:30am 12.2 10.2 8.7 79 1.8 WNW 9 17 5 9 1021.8 1021.9 0.0
17/10:00am 12.4 12.1 10.1 86 1.2 NNE 2 7 1 4 1021.9 1022.0 0.0
17/09:41am 11.2 11.3 10.3 94 0.5 CALM 0 6 0 3 1022.0 1022.1 0.0
17/09:30am 10.8 9.9 10.6 99 0.1 NNW 6 9 3 5 1022.0 1022.1 0.0
17/09:00am 9.0 7.5 9.0 100 0.0 NNW 7 9 4 5 1021.8 1021.9 0.0
17/08:39am 8.2 6.6 8.2 100 0.0 NNE 6 9 3 5 1021.6 1021.7 0.0
17/08:31am 8.2 7.8 8.2 100 0.0 CALM 0 0 0 0 1021.5 1021.6 0.0
17/08:30am 8.4 8.0 8.4 100 0.0 CALM 0 0 0 0 1021.5 1021.6 0.0
17/08:08am 8.2 7.8 8.2 100 0.0 CALM 0 0 0 0 1021.3 1021.4 0.0
17/08:00am 7.9 7.0 7.9 100 0.0 N 2 6 1 3 1021.3 1021.4 0.0
17/07:54am 7.6 6.3 7.6 100 0.0 NNE 4 7 2 4 1021.3 1021.4 0.0
17/07:30am 6.2 4.9 6.2 100 0.0 ENE 2 7 1 4 1021.0 1021.1 0.0
17/07:00am 6.1 5.2 6.1 100 0.0 CALM 0 0 0 0 1020.8 1020.9 0.0
17/06:30am 5.0 3.9 5.0 100 0.0 CALM 0 0 0 0 1020.3 1020.4 0.0
17/06:26am 5.0 3.9 5.0 100 0.0 CALM 0 0 0 0 1020.2 1020.3 0.0
17/06:12am 5.6 4.6 5.6 100 0.0 CALM 0 0 0 0 1020.1 1020.2 0.0
17/06:00am 6.0 5.1 6.0 100 0.0 CALM 0 0 0 0 1019.9 1020.0 0.0
17/05:30am 5.7 4.7 5.6 99 0.0 CALM 0 0 0 0 1019.6 1019.6 0.0
17/05:00am 6.8 6.1 6.8 100 0.0 CALM 0 0 0 0 1019.3 1019.3 0.0
17/04:30am 7.3 6.3 7.2 99 0.0 WNW 2 7 1 4 1019.1 1019.1 0.0

Other formats

Comma delimited format used in spreadsheet applications
http://www.bom.gov.au/fwo/IDN60801/IDN60801.94910.axf

JavaScript Object Notation format (JSON) in row-major order
http://www.bom.gov.au/fwo/IDN60801/IDN60801.94910.json

Data quality

Most of these data are generated automatically and are frequently updated. Quality checks on data are not normally performed. It is possible for incorrect values to appear. Refer to information at About Latest Weather Observations and please check the disclaimer before using these data.